Weather at Kraków John Paul II International Airport

Public forecast

Using degrees Celsius for public forecast. Weather courtesy of forecast.io.

Current aviation weather report (METAR) for Kraków John Paul II International Airport

Retrieved 2021/04/22 23:30 UTC (0 seconds ago):

EPKK 222330Z 25002KT CAVOK 02/M02 Q1020

Aviation forecast (TAF) for Kraków John Paul II International Airport

Retrieved 2021/04/22 21:37 UTC (2 hours ago):

TAF EPKK 222030Z 2221/2321 28005KT 9999 SCT050 PROB30 TEMPO 2300/2308 BKN009 BKN015TCU TEMPO 2308/2318 29017G28KT SHRA BKN020CB